Date,TemperatureHighF,TemperatureAvgF,TemperatureLowF,DewpointHighF,DewpointAvgF,DewpointLowF,HumidityHigh,HumidityAvg,HumidityLow,PressureMaxIn,PressureMinIn,WindSpeedMaxMPH,WindSpeedAvgMPH,GustSpeedMaxMPH,PrecipitationSumIn
2013-2-1,22,20,17,11,7,4,65,55,44,28.91,28.73,22,9,22,1.68
2013-2-2,11,9,8,0,0,0,60,59,58,29.38,29.33,13,10,13,0.00
2013-2-4,20,18,13,14,10,-6,86,68,42,29.02,28.92,17,6,17,0.00
2013-2-5,23,11,1,4,-1,-6,72,56,29,29.23,29.18,10,1,10,0.00
2013-2-6,31,18,9,21,4,-6,66,50,40,29.50,29.17,19,5,19,0.00
2013-2-7,9,9,7,-6,-6,-6,48,46,44,29.55,29.48,17,7,17,0.01
2013-2-8,12,12,11,11,10,8,86,86,86,29.40,29.35,11,4,11,0.00
2013-2-9,14,12,12,11,10,8,89,86,75,29.14,29.09,12,8,12,0.00
2013-2-12,36,36,35,28,27,26,73,70,69,29.00,28.97,7,4,7,0.37
2013-2-13,33,31,29,26,24,23,77,74,72,29.02,29.01,4,4,4,0.01
2013-2-14,28,28,28,23,23,23,79,79,79,29.10,29.09,2,2,2,0.00
2013-2-17,19,15,13,14,6,4,79,63,57,28.92,28.60,22,10,22,0.08
2013-2-18,23,11,8,4,1,0,62,58,35,29.23,28.72,34,10,34,0.00
2013-2-19,18,14,12,0,0,0,54,48,36,29.28,29.23,6,2,6,0.00
2013-2-21,21,21,21,11,11,11,63,63,63,28.91,28.91,3,3,3,0.46
2013-2-22,37,36,28,21,20,18,69,51,49,29.61,29.59,8,4,9,0.00
2013-2-23,31,30,29,31,30,29,100,99,99,29.34,29.27,9,1,9,0.01
2013-2-24,30,28,27,29,28,26,99,98,93,29.27,29.07,0,0,0,0.00
2013-2-25,39,28,26,29,27,26,99,93,67,29.35,29.17,3,0,3,0.10
2013-2-26,31,27,24,31,28,26,100,99,98,29.60,29.51,3,1,3,0.44